Cecilton, Maryland
Current Conditions -  °F | °C
As of 12:51 PM on Thursday 27 Nov 2014 (Local Time) from KILG Reporting Station
Overcast Overcast  
Wind Chill: 34°   Ceiling: 6000
Heat Index: 41°   Visibility: 10mi
Dew Point: 30°   Wind: 13mph
Humidity: 65%   Direction: 340°NNW
Pressure: 30.03"   Gusts: NA
Location:  39.4°N, 75.87°W
Report Text: KILG 271751Z AUTO 34011KT 10SM OVC060 05/M01 A3003 RMK AO2 SLP171 T00501011 10050 20017 58006
Loading
Personal Weather Stations






























Interactive Weather Map New forecast layout! Learn more

10-Day Weather Forecast

Advertisements
Track Severe Weather on mobile